Time;durP1;ratioP1;P1;durP2;ratioP2;P2;SDS_P1;SDS_P2;PMS_P1;PMS_P2;Temp;Humidity;BMP_temperature;BMP_pressure;BME280_temperature;BME280_humidity;BME280_pressure;Samples;Min_cycle;Max_cycle;Signal;HPM_P1;HPM_P2
2021/12/23 00:02:00;;;;;;;47.92;19.15;;;;;;;-4.75;80.53;101538.97;4420656;32;20452;-66
2021/12/23 00:04:28;;;;;;;36.55;16.87;;;;;;;-4.80;81.23;101537.78;4420455;32;20536;-65
2021/12/23 00:06:55;;;;;;;48.45;17.87;;;;;;;-4.65;80.65;101537.94;4420525;32;20093;-66
2021/12/23 00:09:28;;;;;;;41.37;17.42;;;;;;;-4.51;80.02;101532.03;4420616;32;20503;-65
2021/12/23 00:11:55;;;;;;;42.88;17.08;;;;;;;-4.26;78.76;101531.09;4420728;32;20094;-66
2021/12/23 00:14:25;;;;;;;45.15;17.75;;;;;;;-4.19;78.94;101523.88;4420340;32;20085;-66
2021/12/23 00:17:17;;;;;;;42.53;17.75;;;;;;;-4.26;79.11;101523.38;4420433;32;20101;-66
2021/12/23 00:19:58;;;;;;;45.72;18.25;;;;;;;-4.08;77.91;101519.41;4420532;32;20557;-66
2021/12/23 00:25:11;;;;;;;45.30;17.62;;;;;;;-4.10;78.10;101503.88;4420350;32;20081;-66
2021/12/23 00:27:39;;;;;;;46.75;17.75;;;;;;;-4.16;77.66;101506.06;4420281;32;20169;-66
2021/12/23 00:30:07;;;;;;;49.03;17.58;;;;;;;-4.07;77.71;101498.03;4420185;32;20093;-66
2021/12/23 00:32:37;;;;;;;51.47;17.55;;;;;;;-4.30;79.03;101503.38;4420387;32;20089;-65
2021/12/23 00:35:06;;;;;;;44.45;18.20;;;;;;;-4.01;77.57;101495.84;4420356;32;20089;-66
2021/12/23 00:37:39;;;;;;;45.00;16.05;;;;;;;-4.27;78.30;101501.00;4420176;32;20172;-65
2021/12/23 00:40:10;;;;;;;43.17;17.05;;;;;;;-4.37;79.00;101500.41;4420132;32;20102;-65
2021/12/23 00:42:38;;;;;;;46.88;17.37;;;;;;;-4.52;80.77;101501.03;4420036;32;20464;-66
2021/12/23 00:45:08;;;;;;;42.95;16.50;;;;;;;-4.39;79.43;101498.50;4420027;32;20400;-66
2021/12/23 00:47:35;;;;;;;40.58;16.95;;;;;;;-4.07;78.01;101497.13;4420134;32;20097;-65
2021/12/23 00:50:03;;;;;;;39.28;17.37;;;;;;;-4.21;78.54;101494.56;4420139;32;20159;-66
2021/12/23 00:52:39;;;;;;;40.80;16.75;;;;;;;-4.40;79.20;101495.03;4420221;32;20085;-65
2021/12/23 00:55:12;;;;;;;40.97;16.95;;;;;;;-4.07;77.44;101495.44;4421631;32;20073;-66
2021/12/23 00:57:41;;;;;;;41.58;17.40;;;;;;;-4.21;78.08;101485.94;4422438;32;20127;-65
2021/12/23 01:00:12;;;;;;;46.10;17.75;;;;;;;-4.22;78.41;101489.31;4422462;32;20098;-65
2021/12/23 01:02:44;;;;;;;43.13;17.77;;;;;;;-4.24;78.54;101488.31;4422402;32;20086;-65
2021/12/23 01:05:16;;;;;;;44.58;17.15;;;;;;;-4.20;78.14;101498.03;4422231;32;20077;-65
2021/12/23 01:07:43;;;;;;;41.50;15.88;;;;;;;-4.37;78.98;101486.62;4422194;32;20096;-65
2021/12/23 01:10:11;;;;;;;44.47;17.10;;;;;;;-4.38;78.62;101484.84;4422117;32;20588;-65
2021/12/23 01:12:45;;;;;;;38.03;16.62;;;;;;;-4.33;78.19;101479.22;4422082;32;20404;-65
2021/12/23 01:20:30;;;;;;;39.38;16.98;;;;;;;-4.58;78.58;101476.72;4422207;32;20154;-65
2021/12/23 01:23:05;;;;;;;46.45;16.77;;;;;;;-4.53;78.27;101476.12;4422283;32;20403;-65
2021/12/23 01:25:35;;;;;;;44.50;16.47;;;;;;;-4.71;79.29;101470.66;4422092;32;20085;-65
2021/12/23 01:28:07;;;;;;;40.83;16.95;;;;;;;-4.68;78.83;101471.75;4422159;32;20089;-66
2021/12/23 01:30:40;;;;;;;47.17;18.48;;;;;;;-4.92;80.55;101464.97;4422057;32;20101;-65
2021/12/23 01:33:09;;;;;;;46.58;17.40;;;;;;;-4.95;79.77;101468.22;4421861;32;20384;-66
2021/12/23 01:35:38;;;;;;;41.70;17.02;;;;;;;-5.02;80.16;101471.16;4421898;32;20410;-66
2021/12/23 01:38:06;;;;;;;39.83;16.33;;;;;;;-4.98;79.86;101474.81;4422103;32;20094;-65
2021/12/23 01:40:39;;;;;;;50.17;18.52;;;;;;;-4.89;79.12;101472.88;4421957;32;20495;-65
2021/12/23 01:43:07;;;;;;;49.25;18.12;;;;;;;-4.97;79.79;101463.78;4421977;31;20770;-66
2021/12/23 01:45:34;;;;;;;46.67;17.42;;;;;;;-4.99;79.51;101465.34;4421760;32;20094;-66
2021/12/23 01:48:03;;;;;;;40.25;17.52;;;;;;;-5.07;79.71;101454.53;4421985;32;20837;-65
2021/12/23 01:50:32;;;;;;;49.92;19.20;;;;;;;-5.02;79.38;101458.31;4421898;31;20118;-66
2021/12/23 01:52:59;;;;;;;42.92;18.00;;;;;;;-5.13;79.78;101448.97;4421763;32;20505;-65
2021/12/23 01:55:28;;;;;;;47.65;18.62;;;;;;;-5.07;79.13;101450.28;4421659;32;20165;-65
2021/12/23 01:57:58;;;;;;;39.45;18.05;;;;;;;-5.04;78.81;101449.63;4421650;32;20169;-65
2021/12/23 02:00:29;;;;;;;41.75;17.62;;;;;;;-5.04;78.96;101449.63;4422033;32;20097;-66
2021/12/23 02:02:57;;;;;;;38.92;17.23;;;;;;;-4.92;78.32;101447.84;4421881;32;20521;-65
2021/12/23 02:05:25;;;;;;;41.65;17.95;;;;;;;-4.72;77.48;101440.59;4420931;32;20153;-65
2021/12/23 02:07:55;;;;;;;47.47;17.45;;;;;;;-4.99;78.08;101440.53;4421697;32;20147;-65
2021/12/23 02:10:22;;;;;;;42.33;17.75;;;;;;;-5.46;80.58;101437.28;4421544;31;20097;-65
2021/12/23 02:12:50;;;;;;;47.78;17.45;;;;;;;-5.72;82.17;101438.03;4421805;32;20493;-66
2021/12/23 02:15:18;;;;;;;45.30;17.00;;;;;;;-5.46;80.96;101427.91;4421852;31;20883;-65
2021/12/23 02:17:47;;;;;;;44.17;16.98;;;;;;;-5.56;81.30;101433.19;4421499;32;20094;-65
2021/12/23 02:20:35;;;;;;;38.75;16.12;;;;;;;-5.26;80.34;101429.28;4421454;31;20185;-65
2021/12/23 02:23:08;;;;;;;39.20;16.48;;;;;;;-5.47;80.98;101422.69;4421539;31;20140;-65
2021/12/23 02:25:36;;;;;;;38.92;16.00;;;;;;;-5.40;80.10;101419.75;4421543;32;20134;-65
2021/12/23 02:28:07;;;;;;;46.17;17.42;;;;;;;-5.52;80.40;101420.66;4421376;32;20441;-65
2021/12/23 02:30:39;;;;;;;39.03;16.55;;;;;;;-5.53;80.72;101423.13;4421273;32;20114;-65
2021/12/23 02:33:07;;;;;;;43.97;17.30;;;;;;;-5.57;81.00;101421.16;4421490;32;20077;-65
2021/12/23 02:35:36;;;;;;;37.45;16.60;;;;;;;-5.63;81.00;101410.44;4421332;32;20114;-65
2021/12/23 02:38:04;;;;;;;39.42;16.85;;;;;;;-5.62;81.06;101400.31;4421359;32;20124;-65
2021/12/23 02:40:35;;;;;;;37.65;14.65;;;;;;;-5.37;79.97;101401.94;4421306;32;20105;-65
2021/12/23 02:43:16;;;;;;;41.97;16.12;;;;;;;-5.25;79.36;101401.91;4421451;31;20093;-65
2021/12/23 02:45:44;;;;;;;50.83;17.70;;;;;;;-5.83;82.56;101404.84;4421382;32;20428;-65
2021/12/23 02:48:21;;;;;;;38.60;17.08;;;;;;;-5.82;82.34;101401.47;4421223;32;20497;-65
2021/12/23 02:50:51;;;;;;;40.03;17.12;;;;;;;-5.79;81.81;101408.50;4421390;32;20809;-65
2021/12/23 02:53:23;;;;;;;48.50;19.27;;;;;;;-5.81;82.21;101392.09;4421439;32;20555;-65
2021/12/23 02:55:57;;;;;;;44.78;17.83;;;;;;;-5.87;82.65;101394.22;4421215;32;20089;-65
2021/12/23 02:58:25;;;;;;;51.40;19.55;;;;;;;-5.69;81.50;101392.03;4421104;32;20128;-65
2021/12/23 03:00:54;;;;;;;45.15;17.92;;;;;;;-5.64;81.41;101386.44;4421127;32;20114;-65
2021/12/23 03:03:21;;;;;;;51.65;18.60;;;;;;;-5.83;82.30;101386.88;4421110;32;20153;-65
2021/12/23 03:05:51;;;;;;;46.05;18.60;;;;;;;-5.62;81.05;101381.41;4421048;32;20524;-65
2021/12/23 03:08:37;;;;;;;47.47;18.40;;;;;;;-5.63;81.33;101384.78;4421094;32;20201;-65
2021/12/23 03:11:11;;;;;;;44.38;18.17;;;;;;;-5.78;82.44;101382.03;4421342;32;20453;-65
2021/12/23 03:13:39;;;;;;;42.60;17.83;;;;;;;-5.67;81.09;101375.09;4420964;32;20085;-65
2021/12/23 03:16:07;;;;;;;47.28;18.55;;;;;;;-5.64;80.90;101375.31;4420928;32;20452;-65
2021/12/23 03:18:36;;;;;;;36.65;17.05;;;;;;;-5.60;81.67;101374.72;4420876;32;20128;-65
2021/12/23 03:21:04;;;;;;;44.00;17.85;;;;;;;-5.35;79.69;101369.56;4420931;32;20527;-65
2021/12/23 03:23:34;;;;;;;46.00;17.98;;;;;;;-5.72;81.44;101371.28;4421091;32;20548;-65
2021/12/23 03:26:02;;;;;;;44.17;18.33;;;;;;;-5.83;82.12;101381.72;4420929;32;20173;-65
2021/12/23 03:28:32;;;;;;;45.05;18.00;;;;;;;-6.26;85.00;101375.28;4420945;32;20125;-65
2021/12/23 03:31:00;;;;;;;43.25;18.20;;;;;;;-6.16;84.25;101374.25;4420682;32;20128;-65
2021/12/23 03:33:27;;;;;;;49.63;18.77;;;;;;;-5.97;82.88;101374.78;4420978;32;20077;-65
2021/12/23 03:35:55;;;;;;;34.10;16.58;;;;;;;-5.89;82.18;101371.03;4420816;32;20098;-65
2021/12/23 03:38:25;;;;;;;40.15;17.65;;;;;;;-5.72;81.28;101369.66;4420692;32;20106;-65
2021/12/23 03:40:53;;;;;;;43.70;17.95;;;;;;;-5.70;81.55;101362.03;4420737;32;20135;-65
2021/12/23 03:43:23;;;;;;;39.45;17.12;;;;;;;-5.78;81.14;101359.81;4420952;32;20141;-65
2021/12/23 03:45:51;;;;;;;40.22;16.50;;;;;;;-5.87;81.91;101359.19;4420850;32;20453;-65
2021/12/23 03:48:18;;;;;;;40.20;17.25;;;;;;;-5.97;82.82;101361.97;4420644;32;20185;-65
2021/12/23 03:50:47;;;;;;;39.45;16.08;;;;;;;-5.86;81.91;101360.97;4406537;32;20097;-65
2021/12/23 03:53:16;;;;;;;45.65;16.15;;;;;;;-5.91;81.90;101362.31;4420666;32;20176;-65
2021/12/23 03:55:45;;;;;;;37.60;16.58;;;;;;;-5.52;80.16;101358.16;4420553;32;20536;-65
2021/12/23 03:58:12;;;;;;;41.63;17.25;;;;;;;-5.61;80.67;101362.69;4420583;32;20124;-65
2021/12/23 04:00:43;;;;;;;38.63;16.48;;;;;;;-5.89;82.17;101358.19;4420551;32;20117;-65
2021/12/23 04:03:11;;;;;;;51.80;18.40;;;;;;;-6.20;83.81;101352.63;4420631;32;20196;-65
2021/12/23 04:05:38;;;;;;;40.05;16.15;;;;;;;-6.30;84.54;101351.06;4420668;32;20116;-65
2021/12/23 04:08:06;;;;;;;40.50;15.90;;;;;;;-6.17;83.50;101346.84;4420450;32;20101;-65
2021/12/23 04:10:34;;;;;;;38.88;16.48;;;;;;;-6.21;83.92;101343.16;4420645;31;20196;-65
2021/12/23 04:13:02;;;;;;;36.47;17.00;;;;;;;-5.88;81.98;101339.44;4420488;32;20404;-65
2021/12/23 04:15:30;;;;;;;43.60;17.80;;;;;;;-6.22;84.03;101343.91;4420326;32;20093;-65
2021/12/23 04:17:57;;;;;;;44.35;17.70;;;;;;;-6.41;85.00;101345.97;4420398;32;20140;-65
2021/12/23 04:20:32;;;;;;;43.00;16.62;;;;;;;-6.63;86.23;101346.13;4420375;32;20117;-65
2021/12/23 04:23:03;;;;;;;43.72;18.25;;;;;;;-6.31;83.86;101341.63;4420378;32;20069;-65
2021/12/23 04:25:30;;;;;;;36.05;16.20;;;;;;;-6.26;83.37;101337.69;4420364;32;20128;-65
2021/12/23 04:28:04;;;;;;;44.67;17.65;;;;;;;-6.11;82.27;101340.47;4420089;32;20412;-65
2021/12/23 04:30:31;;;;;;;43.20;16.50;;;;;;;-6.14;82.81;101344.50;4420067;32;20149;-65
2021/12/23 04:33:00;;;;;;;36.25;16.67;;;;;;;-6.28;82.92;101339.28;4420212;32;20085;-65
2021/12/23 04:35:31;;;;;;;39.38;17.10;;;;;;;-6.15;82.00;101332.41;4420488;32;20085;-65
2021/12/23 04:37:58;;;;;;;45.53;19.00;;;;;;;-6.16;82.91;101330.66;4420155;32;20161;-65
2021/12/23 04:40:25;;;;;;;45.33;18.05;;;;;;;-6.28;83.58;101323.88;4420447;32;20124;-65
2021/12/23 04:42:53;;;;;;;46.37;18.00;;;;;;;-6.11;82.08;101330.19;4420255;32;20081;-65
2021/12/23 04:45:21;;;;;;;45.75;17.75;;;;;;;-6.03;81.74;101331.63;4420339;32;20090;-65
2021/12/23 04:47:48;;;;;;;41.10;16.95;;;;;;;-6.14;82.53;101332.53;4420014;32;20090;-65
2021/12/23 04:50:16;;;;;;;40.60;17.60;;;;;;;-6.10;81.69;101313.12;4420102;32;20101;-65
2021/12/23 04:52:44;;;;;;;40.05;17.75;;;;;;;-6.10;81.57;101315.69;4420024;31;20093;-65
2021/12/23 04:55:13;;;;;;;37.30;17.20;;;;;;;-6.31;83.83;101315.97;4405839;32;20509;-65
2021/12/23 04:57:41;;;;;;;53.47;19.42;;;;;;;-6.18;82.70;101321.94;4419948;31;20161;-65
2021/12/23 05:00:17;;;;;;;51.42;18.60;;;;;;;-6.28;84.04;101318.75;4419999;32;20093;-65
2021/12/23 05:02:44;;;;;;;47.15;19.58;;;;;;;-6.15;83.19;101324.72;4419647;32;20081;-65
2021/12/23 05:05:13;;;;;;;49.45;19.33;;;;;;;-6.36;84.48;101321.53;4419606;32;20590;-65
2021/12/23 05:07:40;;;;;;;44.97;19.35;;;;;;;-6.22;83.92;101328.53;4419786;32;20097;-65
2021/12/23 05:10:10;;;;;;;51.15;20.80;;;;;;;-6.17;82.96;101319.50;4419917;32;20109;-65
2021/12/23 05:12:46;;;;;;;47.85;19.62;;;;;;;-6.00;82.38;101318.13;4419975;32;20168;-66
2021/12/23 05:15:16;;;;;;;45.30;19.95;;;;;;;-6.57;86.08;101318.34;4419724;32;20093;-66
2021/12/23 05:17:47;;;;;;;50.55;20.12;;;;;;;-6.57;86.71;101319.25;4419615;32;20161;-65
2021/12/23 05:20:17;;;;;;;49.30;20.90;;;;;;;-6.37;84.93;101318.09;4419843;32;20169;-65
2021/12/23 05:22:47;;;;;;;47.15;20.60;;;;;;;-6.16;83.42;101308.44;4422376;32;20168;-65
2021/12/23 05:25:15;;;;;;;49.47;20.10;;;;;;;-6.27;84.32;101309.38;4419659;32;20089;-65
2021/12/23 05:27:44;;;;;;;44.88;18.00;;;;;;;-6.35;85.55;101301.16;4419810;32;20125;-65
2021/12/23 05:30:14;;;;;;;39.50;18.10;;;;;;;-6.22;84.68;101295.19;4419571;32;20113;-65
2021/12/23 05:32:43;;;;;;;47.92;18.40;;;;;;;-6.09;84.49;101299.50;4434658;32;20093;-65
2021/12/23 05:35:12;;;;;;;41.83;18.37;;;;;;;-6.04;84.68;101300.72;4434803;31;20544;-65
2021/12/23 05:37:40;;;;;;;48.15;19.73;;;;;;;-5.99;85.32;101301.94;4434703;31;20105;-65
2021/12/23 05:40:09;;;;;;;47.80;19.17;;;;;;;-5.79;84.04;101305.84;4434781;32;20544;-65
2021/12/23 05:42:37;;;;;;;44.70;18.60;;;;;;;-5.58;83.52;101316.66;4437780;31;20144;-65
2021/12/23 05:45:04;;;;;;;40.58;17.87;;;;;;;-5.47;82.49;101320.84;4429540;31;20480;-65
2021/12/23 05:47:32;;;;;;;40.03;17.30;;;;;;;-5.31;82.39;101315.03;4422565;32;20481;-65
2021/12/23 05:49:59;;;;;;;48.38;19.27;;;;;;;-4.87;80.09;101327.38;4408771;32;20113;-65
2021/12/23 05:52:26;;;;;;;42.75;17.25;;;;;;;-4.96;80.85;101327.66;4437468;31;20080;-65
2021/12/23 05:54:54;;;;;;;44.40;17.50;;;;;;;-5.02;81.77;101316.94;4437095;32;20530;-65
2021/12/23 05:57:21;;;;;;;43.80;17.30;;;;;;;-4.94;81.39;101320.06;4437120;32;20086;-65
2021/12/23 05:59:49;;;;;;;37.67;16.17;;;;;;;-4.91;81.64;101310.84;4436475;31;20125;-65
2021/12/23 06:02:19;;;;;;;39.03;16.73;;;;;;;-4.86;81.61;101314.59;4436061;32;20077;-66
2021/12/23 06:04:49;;;;;;;40.75;15.50;;;;;;;-4.92;82.75;101309.06;4420183;31;20109;-66
2021/12/23 06:07:17;;;;;;;35.30;14.57;;;;;;;-4.66;81.42;101303.03;4422285;31;20101;-67
2021/12/23 06:09:49;;;;;;;41.28;16.65;;;;;;;-4.50;80.66;101297.16;4420226;32;20090;-67
2021/12/23 06:12:17;;;;;;;38.72;16.00;;;;;;;-4.44;80.12;101299.25;4421210;32;20149;-67
2021/12/23 06:14:50;;;;;;;43.00;16.73;;;;;;;-4.33;80.13;101293.97;4420243;32;20082;-67
2021/12/23 06:17:17;;;;;;;49.15;17.30;;;;;;;-4.26;79.92;101292.66;4421287;32;20094;-67
2021/12/23 06:19:44;;;;;;;43.55;17.73;;;;;;;-4.14;79.55;101297.69;4421444;32;20102;-67
2021/12/23 06:22:13;;;;;;;42.88;18.00;;;;;;;-4.07;79.22;101292.09;4421530;32;20085;-67
2021/12/23 06:24:45;;;;;;;34.13;17.08;;;;;;;-4.09;79.32;101294.59;4421417;32;20105;-67
2021/12/23 06:27:14;;;;;;;42.58;18.17;;;;;;;-3.96;79.27;101293.66;4421557;32;20097;-67
2021/12/23 06:29:41;;;;;;;49.65;17.52;;;;;;;-3.91;78.98;101294.84;4421499;31;20113;-66
2021/12/23 06:32:09;;;;;;;53.53;18.15;;;;;;;-3.90;78.95;101291.44;4421244;32;20077;-67
2021/12/23 06:34:37;;;;;;;45.75;18.25;;;;;;;-3.94;79.36;101289.50;4421223;32;20093;-67
2021/12/23 06:37:05;;;;;;;50.42;19.92;;;;;;;-3.82;78.97;101285.88;4432475;32;20101;-67
2021/12/23 06:39:33;;;;;;;43.90;19.98;;;;;;;-3.77;78.66;101282.78;4436870;31;20093;-67
2021/12/23 06:42:04;;;;;;;54.15;20.83;;;;;;;-3.69;78.67;101285.81;4436790;32;20093;-67
2021/12/23 06:44:31;;;;;;;53.72;20.00;;;;;;;-3.61;78.33;101280.31;4436718;32;20093;-67
2021/12/23 06:46:58;;;;;;;41.65;18.85;;;;;;;-3.56;77.97;101292.59;4436933;32;20090;-67
2021/12/23 06:49:26;;;;;;;46.47;18.45;;;;;;;-3.54;78.35;101289.28;4436654;31;20089;-67
2021/12/23 06:51:55;;;;;;;51.15;20.37;;;;;;;-3.43;77.76;101293.44;4432523;31;20093;-67
2021/12/23 06:54:22;;;;;;;57.08;21.02;;;;;;;-3.45;77.81;101287.28;4435719;32;20484;-67
2021/12/23 06:56:50;;;;;;;49.80;19.98;;;;;;;-3.41;77.72;101291.81;4436419;32;20672;-67
2021/12/23 06:59:17;;;;;;;45.20;17.75;;;;;;;-3.50;78.28;101287.78;4436495;32;20119;-67
2021/12/23 07:01:48;;;;;;;41.83;17.73;;;;;;;-3.40;78.27;101298.72;4436621;32;20077;-67
2021/12/23 07:04:18;;;;;;;46.13;19.17;;;;;;;-3.28;78.02;101293.44;4436426;31;20105;-67
2021/12/23 07:06:48;;;;;;;40.03;16.05;;;;;;;-3.23;78.13;101294.56;4436634;32;20434;-67
2021/12/23 07:09:16;;;;;;;37.70;14.52;;;;;;;-3.20;78.17;101292.16;4436408;32;20231;-67
2021/12/23 07:11:43;;;;;;;39.05;14.63;;;;;;;-3.16;78.14;101293.22;4436541;32;20109;-67
2021/12/23 07:14:10;;;;;;;40.38;15.88;;;;;;;-3.02;77.52;101288.88;4436640;32;20119;-67
2021/12/23 07:16:39;;;;;;;40.80;16.73;;;;;;;-2.94;77.21;101285.03;4429317;32;20180;-67
2021/12/23 07:19:07;;;;;;;49.83;19.67;;;;;;;-3.00;76.84;101280.44;4421132;32;20097;-67
2021/12/23 07:21:37;;;;;;;49.70;20.70;;;;;;;-2.91;76.72;101282.62;4420901;32;20116;-67
2021/12/23 07:24:05;;;;;;;40.20;17.75;;;;;;;-2.87;76.96;101288.84;4420859;32;20188;-67
2021/12/23 07:26:32;;;;;;;36.13;17.25;;;;;;;-2.77;76.70;101276.56;4420788;32;20094;-67
2021/12/23 07:28:59;;;;;;;32.55;15.27;;;;;;;-2.62;76.43;101273.94;4420866;32;20991;-67
2021/12/23 07:31:27;;;;;;;32.85;14.00;;;;;;;-2.58;76.41;101275.91;4420639;31;20101;-67
2021/12/23 07:33:54;;;;;;;27.98;12.75;;;;;;;-2.50;75.82;101274.63;4406491;32;20487;-67
2021/12/23 07:36:24;;;;;;;31.15;13.23;;;;;;;-2.35;74.89;101271.09;4420827;32;20155;-67
2021/12/23 07:38:52;;;;;;;33.03;11.93;;;;;;;-2.38;74.81;101274.41;4420690;32;20102;-67
2021/12/23 07:41:19;;;;;;;29.67;13.00;;;;;;;-2.28;74.95;101274.09;4420673;32;20089;-67
2021/12/23 07:43:59;;;;;;;30.75;13.10;;;;;;;-2.13;74.41;101286.03;4420715;32;20432;-67
2021/12/23 07:46:29;;;;;;;30.98;13.13;;;;;;;-2.07;74.09;101276.94;4420725;32;20085;-67
2021/12/23 07:48:59;;;;;;;34.97;14.43;;;;;;;-2.03;73.32;101276.28;4420866;32;20106;-67
2021/12/23 07:51:26;;;;;;;34.13;13.23;;;;;;;-2.02;72.76;101272.00;4420609;32;20417;-67
2021/12/23 07:53:54;;;;;;;30.42;13.02;;;;;;;-1.98;73.78;101271.34;4406166;32;20150;-67
2021/12/23 07:56:25;;;;;;;33.75;13.73;;;;;;;-1.83;73.10;101268.72;4420500;32;20212;-67
2021/12/23 07:58:52;;;;;;;26.40;12.07;;;;;;;-1.96;73.56;101259.44;4423404;32;20158;-67
2021/12/23 08:01:20;;;;;;;30.25;13.32;;;;;;;-1.78;72.84;101259.50;4427573;32;20096;-66
2021/12/23 08:03:47;;;;;;;30.85;13.05;;;;;;;-1.77;72.81;101251.81;4419525;32;20512;-65
2021/12/23 08:06:17;;;;;;;34.58;13.98;;;;;;;-1.75;72.01;101262.25;4423443;32;20455;-65
2021/12/23 08:08:44;;;;;;;38.72;14.70;;;;;;;-1.74;71.90;101249.38;4422019;32;20542;-65
2021/12/23 08:11:14;;;;;;;32.03;14.02;;;;;;;-1.68;72.21;101246.25;4419294;32;20084;-66
2021/12/23 08:13:41;;;;;;;38.15;12.90;;;;;;;-1.60;71.41;101242.34;4419054;32;20089;-65
2021/12/23 08:16:10;;;;;;;34.38;13.60;;;;;;;-1.61;69.72;101247.44;4418748;32;20755;-66
2021/12/23 08:18:39;;;;;;;28.15;12.65;;;;;;;-1.71;71.54;101240.91;4418781;32;20127;-65
2021/12/23 08:21:07;;;;;;;33.90;13.38;;;;;;;-1.53;70.71;101241.84;4428280;32;20122;-65
2021/12/23 08:23:37;;;;;;;32.53;13.25;;;;;;;-1.35;70.86;101235.81;4426186;31;20361;-66
2021/12/23 08:26:10;;;;;;;29.87;13.32;;;;;;;-1.22;69.75;101240.78;4432077;32;20105;-66
2021/12/23 08:28:38;;;;;;;34.78;12.20;;;;;;;-1.15;69.70;101237.69;4434738;32;20482;-65
2021/12/23 08:31:06;;;;;;;26.37;11.57;;;;;;;-1.09;69.67;101235.41;4434832;32;20152;-66
2021/12/23 08:33:39;;;;;;;24.02;11.63;;;;;;;-0.85;69.04;101222.78;4421659;32;20124;-66
2021/12/23 08:36:07;;;;;;;25.83;11.73;;;;;;;-0.79;68.22;101219.59;4435360;32;20101;-65
2021/12/23 08:38:34;;;;;;;23.27;11.93;;;;;;;-0.69;67.80;101218.31;4435504;31;20131;-66
2021/12/23 08:41:01;;;;;;;27.77;11.12;;;;;;;-0.68;68.31;101223.56;4435453;32;20464;-66
2021/12/23 08:43:28;;;;;;;19.67;9.38;;;;;;;-0.52;66.68;101228.62;4435518;31;20097;-66
2021/12/23 08:45:55;;;;;;;22.87;9.52;;;;;;;-0.45;64.99;101221.16;4435439;32;20152;-66
2021/12/23 08:48:23;;;;;;;24.87;11.88;;;;;;;-0.50;65.16;101227.00;4435446;32;20160;-65
2021/12/23 08:50:51;;;;;;;25.67;10.93;;;;;;;-0.45;65.95;101226.34;4435514;31;20499;-66
2021/12/23 08:53:19;;;;;;;24.42;9.25;;;;;;;-0.41;64.56;101217.91;4433737;32;20093;-66
2021/12/23 08:55:46;;;;;;;27.10;9.65;;;;;;;-0.51;65.08;101225.22;4433719;31;20161;-65
2021/12/23 08:58:14;;;;;;;20.58;8.80;;;;;;;-0.18;64.05;101216.31;4432509;31;20113;-66
2021/12/23 09:00:41;;;;;;;21.90;9.57;;;;;;;-0.06;63.43;101215.19;4419352;32;20089;-66
2021/12/23 09:03:10;;;;;;;37.47;9.40;;;;;;;-0.06;61.88;101214.31;4419390;32;20089;-65
2021/12/23 09:05:39;;;;;;;17.37;8.43;;;;;;;0.03;61.99;101219.87;4418951;32;20090;-66
2021/12/23 09:08:07;;;;;;;17.77;8.80;;;;;;;0.02;60.44;101218.09;4419813;32;20102;-65
2021/12/23 09:10:34;;;;;;;17.25;8.70;;;;;;;-0.09;60.99;101207.28;4434534;32;20113;-66
2021/12/23 09:13:05;;;;;;;26.30;9.73;;;;;;;0.12;59.19;101202.16;4434900;32;20089;-66
2021/12/23 09:15:32;;;;;;;20.65;9.18;;;;;;;0.35;59.48;101191.88;4435474;32;20101;-66
2021/12/23 09:17:59;;;;;;;17.33;8.45;;;;;;;0.34;58.72;101185.78;4436763;32;20471;-66
2021/12/23 09:20:27;;;;;;;22.35;8.88;;;;;;;0.63;59.01;101186.13;4422036;32;20107;-66
2021/12/23 09:22:54;;;;;;;21.15;8.30;;;;;;;0.80;57.51;101187.69;4437002;32;20117;-66
2021/12/23 09:25:29;;;;;;;19.73;7.72;;;;;;;0.51;56.61;101180.44;4436472;31;20098;-66
2021/12/23 09:33:36;;;;;;;15.97;7.77;;;;;;;0.80;57.67;101158.28;4423132;32;20125;-66
2021/12/23 09:36:04;;;;;;;17.80;7.28;;;;;;;0.84;55.51;101163.63;4429336;32;20155;-66
2021/12/23 09:38:31;;;;;;;18.62;9.02;;;;;;;0.92;54.93;101159.66;4425958;32;20141;-66
2021/12/23 09:41:09;;;;;;;20.17;9.73;;;;;;;1.08;56.12;101149.88;4421233;32;20529;-66
2021/12/23 09:43:40;;;;;;;17.17;8.05;;;;;;;1.13;54.44;101148.31;4421269;32;20086;-66
2021/12/23 09:46:10;;;;;;;16.35;7.30;;;;;;;1.28;54.78;101148.94;4421287;32;20137;-66
2021/12/23 09:48:42;;;;;;;18.55;7.03;;;;;;;1.28;53.87;101143.75;4430676;32;20093;-66
2021/12/23 09:51:17;;;;;;;14.68;7.32;;;;;;;1.28;54.51;101143.75;4436383;32;20081;-66
2021/12/23 09:53:54;;;;;;;13.48;6.85;;;;;;;1.38;54.33;101138.06;4436284;32;20177;-66
2021/12/23 09:56:27;;;;;;;23.25;7.37;;;;;;;1.43;54.70;101136.50;4442737;31;20101;-66
2021/12/23 09:58:57;;;;;;;18.10;7.30;;;;;;;1.87;53.92;101149.34;4428425;32;20113;-66
2021/12/23 10:01:27;;;;;;;13.80;7.03;;;;;;;2.21;51.30;101150.53;4427823;32;20158;-66
2021/12/23 10:03:54;;;;;;;17.90;7.53;;;;;;;2.16;52.46;101145.19;4426162;32;20495;-66
2021/12/23 10:06:24;;;;;;;26.33;8.65;;;;;;;2.41;52.29;101133.00;4430864;32;20497;-66
2021/12/23 10:08:52;;;;;;;15.10;7.07;;;;;;;2.66;51.91;101119.06;4426710;32;20117;-66
2021/12/23 10:31:25;;;;;;;12.88;6.20;;;;;;;2.06;50.42;101091.97;4420828;32;20110;-66
2021/12/23 10:39:52;;;;;;;15.55;5.78;;;;;;;2.64;47.46;101066.97;4434544;32;20139;-66
2021/12/23 10:42:20;;;;;;;10.80;5.63;;;;;;;2.57;47.26;101058.09;4435683;32;20105;-66
2021/12/23 10:44:54;;;;;;;10.05;5.40;;;;;;;2.55;47.81;101056.28;4435944;32;20563;-66
2021/12/23 10:47:39;;;;;;;12.23;6.53;;;;;;;2.29;47.78;101047.63;4435774;32;20077;-66
2021/12/23 10:50:18;;;;;;;;;;;;;;;2.46;47.36;101040.37;4436448;32;20549;-66
2021/12/23 10:52:55;;;;;;;15.00;6.20;;;;;;;2.76;47.08;101033.53;4436442;32;20316;-66
2021/12/23 10:58:07;;;;;;;11.98;6.72;;;;;;;2.02;47.61;101025.12;4432539;32;20105;-66
2021/12/23 11:00:45;;;;;;;17.98;7.20;;;;;;;2.19;49.03;101022.19;4422419;32;20136;-66
2021/12/23 11:06:29;;;;;;;10.93;5.65;;;;;;;2.41;48.50;101019.44;4419904;32;20074;-66
2021/12/23 11:28:55;;;;;;;11.27;5.62;;;;;;;1.44;49.71;100960.81;4419686;32;20120;-66
2021/12/23 11:37:25;;;;;;;10.80;4.80;;;;;;;1.43;48.84;100946.06;4420829;32;20115;-65
2021/12/23 11:42:29;;;;;;;9.10;5.20;;;;;;;1.25;51.16;100920.38;4421099;32;20754;-66
2021/12/23 11:44:57;;;;;;;8.88;4.53;;;;;;;1.13;50.05;100922.53;4420693;32;20093;-65
2021/12/23 11:47:24;;;;;;;10.38;4.55;;;;;;;1.23;50.21;100918.53;4420734;32;20101;-66
2021/12/23 11:49:52;;;;;;;9.77;4.47;;;;;;;1.05;50.07;100905.81;4420185;32;20154;-66
2021/12/23 11:52:20;;;;;;;10.52;5.62;;;;;;;1.10;50.09;100904.28;4420513;32;20546;-66
2021/12/23 11:54:47;;;;;;;11.57;5.80;;;;;;;1.18;51.00;100898.50;4420646;32;20090;-66
2021/12/23 11:57:15;;;;;;;9.75;5.43;;;;;;;1.54;51.07;100897.97;4420851;32;20483;-66
2021/12/23 11:59:57;;;;;;;11.68;5.15;;;;;;;1.58;49.02;100901.53;4419940;32;20564;-65
2021/12/23 12:02:25;;;;;;;11.18;5.47;;;;;;;1.22;49.37;100889.09;4420239;32;20535;-65
2021/12/23 12:05:00;;;;;;;12.63;5.18;;;;;;;1.28;49.07;100886.72;4419019;32;20120;-65
2021/12/23 12:07:30;;;;;;;7.70;4.73;;;;;;;1.06;48.85;100884.22;4419113;32;20098;-65
2021/12/23 12:10:07;;;;;;;11.32;5.45;;;;;;;0.88;49.47;100882.78;4418818;32;20106;-65
2021/12/23 12:12:54;;;;;;;7.15;3.75;;;;;;;0.73;48.98;100882.19;4419086;32;20093;-65
2021/12/23 12:15:41;;;;;;;9.18;3.40;;;;;;;0.69;49.94;100883.81;4419710;32;20160;-65
2021/12/23 12:18:13;;;;;;;24.20;4.57;;;;;;;1.05;49.76;100875.53;4419951;32;20528;-65
2021/12/23 12:20:45;;;;;;;11.40;4.85;;;;;;;1.16;48.78;100873.31;4420476;32;20450;-65
2021/12/23 12:23:32;;;;;;;9.80;4.05;;;;;;;1.11;48.59;100862.78;4420419;32;20144;-65
2021/12/23 12:26:06;;;;;;;8.27;4.57;;;;;;;0.93;48.99;100867.34;4420395;32;20149;-65
2021/12/23 12:28:37;;;;;;;8.85;4.37;;;;;;;1.02;48.54;100861.59;4420484;32;20098;-65
2021/12/23 12:31:12;;;;;;;12.93;4.97;;;;;;;1.19;48.60;100845.75;4420331;32;20456;-65
2021/12/23 12:33:55;;;;;;;9.88;5.00;;;;;;;1.22;50.34;100844.97;4420396;32;20085;-65
2021/12/23 12:36:24;;;;;;;7.07;4.12;;;;;;;1.31;49.34;100850.50;4420117;32;20152;-66
2021/12/23 12:38:57;;;;;;;9.18;4.53;;;;;;;1.06;50.68;100845.28;4420338;32;20097;-65
2021/12/23 12:41:24;;;;;;;8.32;5.57;;;;;;;1.02;48.67;100841.69;4420314;32;20105;-65